Pagrindinis puslapis
METAR-TAF:

METAR-TAF

Oro uostai :

Tabatinga, Amazonė, Brazilija

platuma: 03-40S, ilguma: 069-40W, Aukštis: 85 m

Dabartinis oras

Ataskaita buvo paskelbta 56 minutes, ne 22:00 UTC
Vėjas 4 kt iš Pietų
Temperatūra 28°C
Drėgmė 70%
Slėgis 1013 hPa
Matomumas 10 km arba daugiau
Mažai debesys ne aukštis 2000 ft

METAR: SBTT 052200Z 17004KT 9999 FEW020 28/22 Q1013

Laikas: 18:56 (22:56 UTC)

Prognozė

Ataskaita buvo paskelbta 7 valandos ir 56 minutes, ne 15:00 UTC
Prognozė galioja nuo 05 metu 18 UTC su 06 metu 18 UTC
Vėjas 5 kt iš Pietų
Matomumas 10 km arba daugiau
Išsisklaidę debesys ne aukštis 1500 ft
Tapsmas
nuo 06 metu 04 UTC su 06 metu 06 UTC
Matomumas: 8000 m
Su prošvaistėmis ne aukštis 800 ft

TAF: SBTT 051500Z 0518/0618 17005KT 9999 SCT015 TX29/0520Z TN23/0611Z BECMG 0604/0606 8000 BKN008 RMK PDZ

Orai ataskaitas ir orų prognozės (METAR, TAF).

turimą stotys yra geltonos ir raudonos taškus žemėlapyje.

Perkelti pele per norėdami pamatyti stoties vardą.

Tada spustelėkite, norėdami matyti oro stebėjimo ir prognozės.

Norėdami pakeisti žemėlapį: spustelėkite ant žalios mygtukų su juodo kryžiaus žemyn,; žalią mygtuką su brūkšneliu, jei norite nutolinti; arba žalių rodyklių gretimoms žemėlapius.


METAR-TAF: